Time;durP1;ratioP1;P1;durP2;ratioP2;P2;SDS_P1;SDS_P2;PMS_P1;PMS_P2;Temp;Humidity;BMP_temperature;BMP_pressure;BME280_temperature;BME280_humidity;BME280_pressure;Samples;Min_cycle;Max_cycle;Signal;HPM_P1;HPM_P2
2024/04/14 00:02:57;;;;;;;1.95;1.17;;;;;;;18.16;76.77;101345.03;6775675;26;20052;-72
2024/04/14 00:05:58;;;;;;;1.30;1.00;;;;;;;18.10;76.45;101343.69;6775921;26;20005;-72
2024/04/14 00:09:01;;;;;;;3.80;1.50;;;;;;;18.08;76.54;101356.28;6775912;26;20002;-73
2024/04/14 00:12:02;;;;;;;3.60;0.93;;;;;;;17.92;77.04;101348.56;6775485;26;20006;-73
2024/04/14 00:15:06;;;;;;;1.92;1.00;;;;;;;17.83;78.24;101345.75;6776050;26;20359;-72
2024/04/14 00:18:11;;;;;;;2.72;1.10;;;;;;;17.88;77.56;101340.94;6775689;26;20006;-72
2024/04/14 00:21:12;;;;;;;3.40;1.02;;;;;;;17.87;77.34;101357.88;6775490;26;20363;-73
2024/04/14 00:24:16;;;;;;;2.28;1.17;;;;;;;17.77;77.63;101356.84;6775426;26;20038;-72
2024/04/14 00:27:16;;;;;;;3.63;1.17;;;;;;;17.73;77.97;101350.88;6775445;26;20259;-72
2024/04/14 00:30:19;;;;;;;2.50;0.90;;;;;;;17.63;78.56;101352.53;6775574;26;19995;-73
2024/04/14 00:33:25;;;;;;;2.90;1.27;;;;;;;17.52;77.26;101344.47;6775160;26;19995;-72
2024/04/14 00:36:25;;;;;;;6.15;1.38;;;;;;;17.48;77.53;101355.31;6775278;26;20054;-74
2024/04/14 00:39:28;;;;;;;1.67;0.98;;;;;;;17.47;77.35;101355.44;6775579;26;20003;-73
2024/04/14 00:42:28;;;;;;;2.17;1.25;;;;;;;17.52;77.80;101355.09;6774984;26;20067;-73
2024/04/14 00:45:32;;;;;;;4.20;1.15;;;;;;;17.44;77.97;101358.31;6775119;26;19991;-72
2024/04/14 00:48:37;;;;;;;3.92;1.27;;;;;;;17.25;78.99;101356.97;6775482;26;20599;-72
2024/04/14 00:51:41;;;;;;;4.38;1.00;;;;;;;17.29;79.59;101354.94;6774632;26;20474;-72
2024/04/14 00:54:44;;;;;;;4.28;1.05;;;;;;;17.15;80.30;101363.91;6774302;26;19990;-73
2024/04/14 00:57:45;;;;;;;5.80;1.27;;;;;;;17.07;80.88;101373.38;6774743;26;20007;-72
2024/04/14 01:00:49;;;;;;;6.07;1.02;;;;;;;16.90;82.36;101374.59;6774656;26;19995;-73
2024/04/14 01:03:53;;;;;;;6.82;1.08;;;;;;;16.88;82.80;101387.94;6774758;26;20304;-72
2024/04/14 01:06:56;;;;;;;4.28;1.25;;;;;;;16.93;83.03;101374.34;6774638;26;20005;-74
2024/04/14 01:10:00;;;;;;;4.78;1.20;;;;;;;16.80;83.51;101378.81;6774559;26;19990;-74
2024/04/14 01:13:00;;;;;;;2.03;1.10;;;;;;;16.88;83.07;101379.97;6774391;26;19991;-74
2024/04/14 01:16:03;;;;;;;2.67;1.00;;;;;;;16.75;82.97;101389.75;6761413;26;20026;-74
2024/04/14 01:19:06;;;;;;;1.85;0.80;;;;;;;16.67;83.67;101381.47;6759385;26;20103;-74
2024/04/14 01:22:09;;;;;;;2.67;1.17;;;;;;;16.71;82.97;101391.75;6748935;26;20673;-74
2024/04/14 01:25:12;;;;;;;4.28;1.25;;;;;;;16.70;83.66;101389.19;6773876;26;20003;-74
2024/04/14 01:28:16;;;;;;;4.22;0.93;;;;;;;16.60;84.71;101393.44;6774489;26;20002;-74
2024/04/14 01:31:17;;;;;;;7.97;1.35;;;;;;;16.61;84.40;101385.34;6773944;26;20002;-74
2024/04/14 01:34:21;;;;;;;3.85;1.38;;;;;;;16.68;84.20;101396.41;6774233;26;19999;-74
2024/04/14 01:37:21;;;;;;;4.55;1.20;;;;;;;16.60;84.50;101386.31;6773743;26;19990;-76
2024/04/14 01:40:27;;;;;;;7.50;1.50;;;;;;;16.53;85.61;101389.47;6774266;26;20317;-74
2024/04/14 01:43:27;;;;;;;5.32;1.73;;;;;;;16.55;85.77;101385.78;6773813;26;19987;-74
2024/04/14 01:46:30;;;;;;;3.28;1.05;;;;;;;16.53;85.99;101369.09;6773640;26;20396;-75
2024/04/14 01:49:31;;;;;;;2.58;1.05;;;;;;;16.41;86.97;101384.06;6773712;26;19995;-74
2024/04/14 01:52:34;;;;;;;3.70;0.82;;;;;;;16.30;87.00;101389.22;6773342;26;20128;-74
2024/04/14 01:55:37;;;;;;;5.85;0.80;;;;;;;16.29;87.91;101398.16;6773723;26;19995;-75
2024/04/14 01:58:40;;;;;;;3.50;1.38;;;;;;;16.32;88.25;101402.41;6773826;26;20323;-74
2024/04/14 02:01:40;;;;;;;4.68;1.58;;;;;;;16.13;89.64;101411.59;6773331;26;20005;-74
2024/04/14 02:04:43;;;;;;;1.98;1.20;;;;;;;15.97;90.35;101419.69;6773358;26;19998;-76
2024/04/14 02:07:44;;;;;;;6.05;1.10;;;;;;;16.08;90.10;101410.16;6773278;26;20096;-75
2024/04/14 02:10:49;;;;;;;8.05;1.42;;;;;;;16.13;89.62;101414.25;6773139;26;20424;-73
2024/04/14 02:13:52;;;;;;;2.90;1.17;;;;;;;16.12;90.76;101419.63;6773376;26;20107;-74
2024/04/14 02:16:53;;;;;;;4.43;1.42;;;;;;;16.06;90.89;101422.69;6773028;26;20006;-76
2024/04/14 02:19:56;;;;;;;5.07;1.88;;;;;;;16.06;91.06;101426.19;6773066;26;20111;-74
2024/04/14 02:22:56;;;;;;;3.35;1.20;;;;;;;15.86;92.23;101427.50;6744105;26;20503;-73
2024/04/14 02:26:02;;;;;;;5.78;1.52;;;;;;;15.86;91.09;101438.09;6732741;26;19999;-74
2024/04/14 02:29:02;;;;;;;2.22;1.13;;;;;;;15.89;90.98;101435.22;6733022;26;20372;-76
2024/04/14 02:32:06;;;;;;;6.57;1.80;;;;;;;16.03;89.96;101438.78;6732462;26;20067;-73
2024/04/14 02:35:07;;;;;;;4.90;1.52;;;;;;;16.05;90.76;101443.06;6732261;26;20041;-75
2024/04/14 02:38:09;;;;;;;1.85;0.95;;;;;;;16.06;90.79;101436.78;6763536;26;20006;-75
2024/04/14 02:41:15;;;;;;;6.70;1.17;;;;;;;16.05;91.07;101440.41;6776886;26;20058;-75
2024/04/14 02:44:16;;;;;;;2.75;1.13;;;;;;;15.93;92.42;101439.38;6777428;26;20051;-72
2024/04/14 02:47:19;;;;;;;3.13;1.13;;;;;;;15.98;92.95;101441.75;6777204;26;20009;-75
2024/04/14 02:50:22;;;;;;;2.72;1.00;;;;;;;15.95;93.28;101439.31;6777079;26;20051;-73
2024/04/14 02:53:25;;;;;;;7.55;1.60;;;;;;;15.91;93.43;101441.31;6776874;26;20059;-76
2024/04/14 02:56:31;;;;;;;5.35;1.50;;;;;;;15.94;93.47;101449.06;6777005;26;20006;-73
2024/04/14 02:59:34;;;;;;;3.40;1.60;;;;;;;15.91;93.15;101448.41;6777138;26;20312;-73
2024/04/14 03:02:37;;;;;;;2.28;1.10;;;;;;;15.96;93.26;101467.50;6776720;26;20059;-73
2024/04/14 03:05:37;;;;;;;2.25;1.33;;;;;;;15.97;93.24;101461.25;6776982;26;20006;-73
2024/04/14 03:08:41;;;;;;;6.57;1.45;;;;;;;15.83;95.58;101474.53;6776711;26;20247;-74
2024/04/14 03:11:44;;;;;;;2.33;1.25;;;;;;;15.78;96.00;101474.84;6776795;26;20046;-74
2024/04/14 03:14:47;;;;;;;5.07;1.50;;;;;;;15.61;97.67;101485.63;6776786;26;20043;-76
2024/04/14 03:17:47;;;;;;;3.00;1.13;;;;;;;15.46;96.43;101476.84;6776715;26;20002;-75
2024/04/14 03:20:57;;;;;;;4.78;1.20;;;;;;;15.42;92.51;101486.75;6776502;26;20288;-74
2024/04/14 03:23:58;;;;;;;4.78;1.00;;;;;;;15.41;86.79;101485.06;6737607;26;20000;-75
2024/04/14 03:27:03;;;;;;;7.20;0.90;;;;;;;15.17;80.07;101487.44;6731512;26;19996;-75
2024/04/14 03:30:05;;;;;;;3.67;0.70;;;;;;;15.13;78.26;101496.50;6747233;26;20085;-76
2024/04/14 03:33:08;;;;;;;2.42;0.57;;;;;;;15.07;79.23;101504.78;6774208;26;20011;-76
2024/04/14 03:36:11;;;;;;;1.27;0.70;;;;;;;15.12;80.05;101505.34;6732960;26;20004;-74
2024/04/14 03:39:14;;;;;;;0.57;0.50;;;;;;;15.05;80.65;101505.84;6729195;26;20006;-75
2024/04/14 03:42:19;;;;;;;4.57;1.17;;;;;;;15.01;80.76;101522.84;6728544;26;20348;-75
2024/04/14 03:45:24;;;;;;;2.30;0.60;;;;;;;14.89;82.50;101513.81;6744630;26;20667;-75
2024/04/14 03:48:27;;;;;;;6.20;0.75;;;;;;;15.01;83.27;101522.84;6769592;26;20004;-76
2024/04/14 03:51:30;;;;;;;3.22;1.33;;;;;;;14.87;84.14;101524.50;6777203;21;20003;-79
2024/04/14 03:54:31;;;;;;;1.90;0.52;;;;;;;14.83;84.28;101530.94;6753017;26;20068;-80
2024/04/14 03:57:36;;;;;;;1.65;0.47;;;;;;;14.92;84.07;101538.31;6758860;26;20336;-78
2024/04/14 04:00:37;;;;;;;5.88;0.70;;;;;;;14.87;85.14;101539.53;6759352;26;20063;-81
2024/04/14 04:03:40;;;;;;;1.98;0.60;;;;;;;14.40;83.26;101538.66;6748309;26;20011;-80
2024/04/14 04:06:40;;;;;;;7.22;0.77;;;;;;;14.37;82.57;101522.97;6751346;26;20006;-78
2024/04/14 04:09:43;;;;;;;2.60;0.50;;;;;;;14.34;83.53;101533.72;6764335;26;20427;-78
2024/04/14 04:12:47;;;;;;;5.43;0.63;;;;;;;14.24;84.01;101542.25;6760454;26;20435;-78
2024/04/14 04:15:56;;;;;;;2.08;0.68;;;;;;;14.19;84.55;101540.72;6762061;26;20360;-80
2024/04/14 04:18:59;;;;;;;4.53;0.60;;;;;;;14.21;85.40;101545.91;6737323;26;20064;-78
2024/04/14 04:21:59;;;;;;;1.35;0.70;;;;;;;14.10;86.31;101540.38;6758655;26;19996;-79
2024/04/14 04:25:02;;;;;;;4.53;0.82;;;;;;;14.18;86.23;101536.38;6747782;26;19996;-78
2024/04/14 04:28:06;;;;;;;3.83;0.57;;;;;;;14.18;86.73;101554.88;6751599;26;20025;-81
2024/04/14 04:31:14;;;;;;;8.15;1.10;;;;;;;14.14;87.38;101558.63;6752577;26;20045;-79
2024/04/14 04:34:14;;;;;;;11.98;1.05;;;;;;;14.03;90.21;101561.00;6751470;26;19991;-79
2024/04/14 04:37:17;;;;;;;8.68;1.30;;;;;;;13.89;94.11;101566.19;6752670;26;20283;-80
2024/04/14 04:40:17;;;;;;;5.28;1.30;;;;;;;13.95;94.74;101573.78;6756042;26;20355;-81
2024/04/14 04:43:25;;;;;;;4.68;1.15;;;;;;;13.97;94.06;101590.41;6754490;26;19994;-80
2024/04/14 04:46:25;;;;;;;2.75;0.77;;;;;;;13.94;92.52;101596.72;6749860;26;19999;-80
2024/04/14 04:49:28;;;;;;;3.22;0.70;;;;;;;14.00;91.32;101589.41;6756736;26;20000;-80
2024/04/14 04:52:29;;;;;;;5.38;1.05;;;;;;;13.82;88.65;101589.44;6749239;26;19992;-80
2024/04/14 04:55:32;;;;;;;3.85;0.85;;;;;;;13.61;85.35;101591.44;6742346;26;20035;-79
2024/04/14 04:58:38;;;;;;;4.00;0.88;;;;;;;13.68;81.07;101591.97;6744940;26;20363;-80
2024/04/14 05:01:41;;;;;;;3.25;0.90;;;;;;;13.58;80.34;101596.00;6757352;26;20025;-80
2024/04/14 05:04:41;;;;;;;7.13;1.63;;;;;;;13.61;80.05;101590.56;6735642;26;20075;-78
2024/04/14 05:07:44;;;;;;;6.13;1.50;;;;;;;13.62;80.54;101595.75;6757785;26;20002;-79
2024/04/14 05:10:45;;;;;;;2.95;0.95;;;;;;;13.63;80.68;101597.50;6762437;26;20032;-79
2024/04/14 05:13:50;;;;;;;7.00;1.33;;;;;;;13.65;79.72;101594.75;6755181;26;20007;-79
2024/04/14 05:16:51;;;;;;;3.42;0.60;;;;;;;13.58;80.12;101598.66;6744396;26;20041;-80
2024/04/14 05:19:54;;;;;;;3.38;0.70;;;;;;;13.74;79.81;101604.00;6749252;26;20007;-80
2024/04/14 05:22:54;;;;;;;4.60;1.65;;;;;;;13.53;80.39;101609.44;6754069;26;20071;-80
2024/04/14 05:25:57;;;;;;;5.15;0.90;;;;;;;13.54;81.30;101616.47;6749388;26;20026;-80
2024/04/14 05:29:02;;;;;;;10.60;1.13;;;;;;;13.37;83.33;101621.75;6750132;26;20064;-81
2024/04/14 05:32:06;;;;;;;5.13;0.70;;;;;;;13.53;83.61;101624.44;6746308;26;20059;-80
2024/04/14 05:35:06;;;;;;;10.98;1.40;;;;;;;13.58;83.52;101627.69;6744283;26;20000;-79
2024/04/14 05:38:10;;;;;;;1.20;0.47;;;;;;;13.57;83.71;101626.00;6729772;26;20057;-80
2024/04/14 05:41:10;;;;;;;3.25;0.95;;;;;;;13.57;83.76;101628.63;6729247;26;19999;-81
2024/04/14 05:44:16;;;;;;;2.83;0.38;;;;;;;13.44;84.47;101628.41;6729261;26;20006;-78
2024/04/14 05:47:19;;;;;;;7.25;1.00;;;;;;;13.37;83.74;101640.22;6729064;26;20061;-77
2024/04/14 05:50:19;;;;;;;6.57;0.93;;;;;;;13.39;84.67;101648.91;6729270;26;20003;-79
2024/04/14 05:53:22;;;;;;;1.90;0.90;;;;;;;13.54;83.69;101655.22;6728515;26;20072;-80
2024/04/14 05:56:23;;;;;;;6.15;1.00;;;;;;;13.64;84.71;101659.94;6730528;26;20060;-81
2024/04/14 05:59:28;;;;;;;6.93;0.73;;;;;;;13.66;84.74;101668.63;6733638;26;19995;-80
2024/04/14 06:02:31;;;;;;;2.08;0.50;;;;;;;13.64;81.26;101672.31;6748670;26;20007;-80
2024/04/14 06:05:32;;;;;;;5.30;0.80;;;;;;;13.66;81.47;101673.91;6754621;26;19995;-80
2024/04/14 06:08:35;;;;;;;3.97;1.30;;;;;;;13.52;81.29;101686.97;6751860;26;20081;-80
2024/04/14 06:11:38;;;;;;;3.45;0.60;;;;;;;13.43;82.31;101682.16;6778113;26;19991;-80
2024/04/14 06:14:41;;;;;;;7.35;0.90;;;;;;;13.55;83.28;101686.84;6762555;26;19991;-78
2024/04/14 06:17:44;;;;;;;6.15;0.90;;;;;;;13.41;82.36;101689.31;6777470;26;19998;-77
2024/04/14 06:20:45;;;;;;;8.00;1.15;;;;;;;13.48;82.33;101684.56;6777646;26;19990;-78
2024/04/14 06:23:48;;;;;;;8.55;1.00;;;;;;;13.49;82.06;101689.78;6777403;26;19995;-79
2024/04/14 06:26:48;;;;;;;5.80;1.10;;;;;;;13.51;83.07;101689.72;6777634;26;20312;-80
2024/04/14 06:29:54;;;;;;;6.32;0.75;;;;;;;13.33;82.73;101708.16;6777297;26;20043;-79
2024/04/14 06:32:54;;;;;;;7.97;1.02;;;;;;;13.56;83.00;101703.53;6777790;26;20415;-81
2024/04/14 06:35:57;;;;;;;4.75;0.95;;;;;;;13.58;82.17;101709.56;6777611;26;19999;-80
2024/04/14 06:38:58;;;;;;;4.93;1.33;;;;;;;13.60;81.28;101705.94;6777601;26;20005;-80
2024/04/14 06:42:04;;;;;;;9.32;1.05;;;;;;;13.39;80.64;101707.00;6777374;26;20019;-80
2024/04/14 06:45:08;;;;;;;2.67;0.75;;;;;;;13.25;79.47;101718.25;6777663;26;20089;-80
2024/04/14 06:48:11;;;;;;;4.30;0.85;;;;;;;13.24;78.82;101726.25;6777224;26;20007;-80
2024/04/14 06:51:11;;;;;;;4.43;0.90;;;;;;;13.06;79.62;101730.59;6744377;26;19996;-80
2024/04/14 06:54:14;;;;;;;6.70;0.90;;;;;;;13.25;77.37;101725.31;6750048;26;20343;-80
2024/04/14 06:57:16;;;;;;;4.57;0.70;;;;;;;13.17;77.46;101723.88;6747064;26;19995;-80
2024/04/14 07:00:22;;;;;;;10.55;0.70;;;;;;;13.23;75.84;101729.81;6744095;26;19999;-81
2024/04/14 07:03:23;;;;;;;4.82;1.40;;;;;;;13.04;75.63;101733.31;6749071;26;20372;-77
2024/04/14 07:06:26;;;;;;;6.25;0.88;;;;;;;13.25;76.03;101747.28;6745333;26;20012;-78
2024/04/14 07:09:26;;;;;;;6.70;0.88;;;;;;;13.30;72.11;101752.34;6748780;26;20074;-79
2024/04/14 07:12:29;;;;;;;6.72;0.93;;;;;;;13.20;75.77;101747.47;6741614;26;20007;-78
2024/04/14 07:15:32;;;;;;;6.38;1.02;;;;;;;13.52;75.92;101734.50;6729340;26;19996;-79
2024/04/14 07:18:35;;;;;;;5.30;1.25;;;;;;;13.54;73.87;101737.94;6729658;26;19995;-77
2024/04/14 07:21:36;;;;;;;5.28;0.82;;;;;;;13.32;71.55;101755.78;6729540;26;20260;-79
2024/04/14 07:24:39;;;;;;;13.60;1.08;;;;;;;13.09;71.65;101764.78;6730763;26;20024;-78
2024/04/14 07:27:41;;;;;;;4.55;1.13;;;;;;;13.11;69.96;101757.63;6731792;26;19995;-76
2024/04/14 07:30:48;;;;;;;5.00;1.15;;;;;;;13.18;72.04;101756.41;6731687;26;19996;-78
2024/04/14 07:33:53;;;;;;;3.65;0.85;;;;;;;13.10;72.13;101754.13;6731827;26;19996;-78
2024/04/14 07:36:54;;;;;;;3.15;0.68;;;;;;;13.19;72.58;101756.31;6731672;26;19991;-81
2024/04/14 07:39:57;;;;;;;5.63;0.80;;;;;;;13.23;71.14;101758.88;6732234;26;20371;-80
2024/04/14 07:43:00;;;;;;;5.95;0.85;;;;;;;13.04;71.45;101759.72;6731499;26;20060;-79
2024/04/14 07:46:03;;;;;;;7.53;0.75;;;;;;;13.15;71.23;101760.03;6731553;26;20052;-80
2024/04/14 07:49:06;;;;;;;3.92;0.68;;;;;;;13.01;67.65;101773.03;6731481;26;20000;-81
2024/04/14 07:52:09;;;;;;;9.02;1.75;;;;;;;13.09;64.49;101789.38;6732564;26;20002;-80
2024/04/14 07:55:09;;;;;;;3.13;0.65;;;;;;;13.03;64.08;101780.88;6732233;26;19996;-80
2024/04/14 07:58:12;;;;;;;2.78;0.75;;;;;;;13.13;65.10;101771.63;6732219;26;19987;-79
2024/04/14 08:01:16;;;;;;;13.05;0.90;;;;;;;13.05;66.05;101777.25;6731468;26;19995;-80
2024/04/14 08:04:19;;;;;;;6.25;0.90;;;;;;;13.05;66.00;101779.03;6731255;26;20035;-80
2024/04/14 08:07:19;;;;;;;4.72;1.10;;;;;;;13.11;66.60;101770.81;6731756;26;20064;-80
2024/04/14 08:10:22;;;;;;;8.45;1.48;;;;;;;13.24;66.08;101779.03;6730867;26;20011;-79
2024/04/14 08:13:23;;;;;;;3.03;0.43;;;;;;;13.20;58.20;101768.59;6730753;26;20255;-79
2024/04/14 08:16:28;;;;;;;5.50;0.90;;;;;;;13.20;56.98;101784.44;6730823;26;20003;-80
2024/04/14 08:19:29;;;;;;;1.00;0.45;;;;;;;13.28;57.12;101785.88;6730490;26;19991;-80
2024/04/14 08:22:32;;;;;;;7.53;0.80;;;;;;;13.52;58.51;101805.81;6730434;26;20061;-81
2024/04/14 08:25:37;;;;;;;1.90;0.57;;;;;;;13.42;56.95;101780.78;6730708;26;20060;-79
2024/04/14 08:28:40;;;;;;;4.30;1.08;;;;;;;13.50;58.20;101777.78;6730590;26;20010;-80
2024/04/14 08:31:43;;;;;;;3.38;0.93;;;;;;;13.55;56.04;101795.13;6730610;26;19991;-80
2024/04/14 08:34:47;;;;;;;4.55;0.80;;;;;;;13.45;54.32;101778.03;6731223;26;20004;-79
2024/04/14 08:37:47;;;;;;;4.72;0.85;;;;;;;13.60;55.33;101789.59;6730309;26;20421;-80
2024/04/14 08:40:54;;;;;;;6.78;0.90;;;;;;;13.49;55.48;101784.88;6730378;26;20000;-79
2024/04/14 08:43:59;;;;;;;6.50;0.77;;;;;;;13.65;55.78;101784.94;6730723;26;20000;-79
2024/04/14 08:47:03;;;;;;;6.13;0.95;;;;;;;13.68;55.42;101796.22;6730410;26;20064;-80
2024/04/14 08:50:08;;;;;;;5.97;0.93;;;;;;;13.68;56.37;101795.38;6730262;26;20007;-79
2024/04/14 08:53:09;;;;;;;3.47;0.50;;;;;;;13.65;56.62;101790.22;6730226;26;20014;-79
2024/04/14 08:56:12;;;;;;;2.70;0.70;;;;;;;13.52;56.67;101794.41;6730443;26;20011;-78
2024/04/14 08:59:14;;;;;;;16.30;4.72;;;;;;;13.48;57.70;101790.19;6730574;26;20055;-80
2024/04/14 09:02:21;;;;;;;4.13;1.55;;;;;;;13.64;56.98;101797.31;6729728;26;20355;-80
2024/04/14 09:05:23;;;;;;;1.55;0.55;;;;;;;13.62;56.56;101795.66;6730406;26;20309;-81
2024/04/14 09:08:26;;;;;;;4.03;0.70;;;;;;;13.54;57.34;101801.34;6729745;26;20000;-80
2024/04/14 09:11:26;;;;;;;4.07;0.75;;;;;;;13.59;55.44;101806.38;6729851;26;19996;-80
2024/04/14 09:14:29;;;;;;;6.18;1.08;;;;;;;13.56;54.94;101806.53;6730957;26;20060;-79
2024/04/14 09:17:35;;;;;;;2.83;0.60;;;;;;;13.55;54.44;101805.69;6732381;26;20041;-78
2024/04/14 09:20:36;;;;;;;4.00;0.70;;;;;;;13.64;53.08;101820.22;6733297;26;20002;-79
2024/04/14 09:23:39;;;;;;;3.40;0.60;;;;;;;13.66;52.85;101815.72;6729837;26;20027;-77
2024/04/14 09:26:39;;;;;;;4.18;0.80;;;;;;;13.69;53.93;101829.63;6729897;26;19999;-78
2024/04/14 09:29:42;;;;;;;4.47;0.60;;;;;;;13.79;55.08;101830.03;6728955;26;20065;-79
2024/04/14 09:32:46;;;;;;;8.18;0.90;;;;;;;13.81;55.37;101814.97;6728366;26;20106;-76
2024/04/14 09:35:50;;;;;;;2.75;0.60;;;;;;;13.85;56.37;101824.47;6729415;26;20003;-78
2024/04/14 09:38:52;;;;;;;6.95;1.13;;;;;;;14.02;55.05;101817.44;6729513;26;19998;-78
2024/04/14 09:41:57;;;;;;;4.40;0.68;;;;;;;14.15;55.26;101821.19;6729255;26;20541;-78
2024/04/14 09:44:59;;;;;;;2.63;0.43;;;;;;;14.04;51.67;101821.75;6729555;26;20374;-79
2024/04/14 09:48:06;;;;;;;2.25;0.60;;;;;;;14.06;53.70;101819.88;6729135;26;20010;-79
2024/04/14 09:51:11;;;;;;;4.65;0.60;;;;;;;14.14;54.79;101820.34;6762884;21;19999;-78
2024/04/14 09:54:14;;;;;;;1.83;0.40;;;;;;;14.23;53.93;101824.31;6773285;26;20056;-78
2024/04/14 09:57:17;;;;;;;5.40;0.70;;;;;;;14.26;52.91;101818.88;6773648;26;20131;-78
2024/04/14 10:00:21;;;;;;;0.70;0.52;;;;;;;14.39;53.21;101819.06;6761749;26;20000;-79
2024/04/14 10:03:26;;;;;;;2.65;0.80;;;;;;;14.47;54.64;101833.59;6728944;26;20056;-78
2024/04/14 10:06:31;;;;;;;2.65;0.65;;;;;;;14.41;54.94;101819.84;6729015;26;19991;-79
2024/04/14 10:09:34;;;;;;;9.93;2.40;;;;;;;14.39;53.18;101825.19;6728666;26;20000;-79
2024/04/14 10:12:37;;;;;;;2.47;0.75;;;;;;;14.42;54.22;101819.75;6728256;26;20010;-81
2024/04/14 10:15:38;;;;;;;4.45;0.68;;;;;;;14.52;54.10;101814.03;6729163;26;19996;-80
2024/04/14 10:18:44;;;;;;;3.40;0.50;;;;;;;14.62;55.90;101812.59;6728794;26;20256;-80
2024/04/14 10:21:45;;;;;;;5.18;1.13;;;;;;;14.63;55.41;101803.75;6728737;26;19995;-80
2024/04/14 10:24:50;;;;;;;4.55;0.70;;;;;;;14.68;53.00;101812.28;6728324;26;20364;-79
2024/04/14 10:27:51;;;;;;;1.50;0.65;;;;;;;14.73;53.29;101804.09;6728585;26;20424;-80
2024/04/14 10:31:02;;;;;;;7.22;0.90;;;;;;;14.54;51.13;101810.38;6728702;26;20000;-79
2024/04/14 10:34:07;;;;;;;3.53;0.50;;;;;;;14.86;47.28;101813.09;6728764;26;19991;-80
2024/04/14 10:37:10;;;;;;;2.97;0.63;;;;;;;14.92;48.84;101813.59;6728518;26;20005;-79
2024/04/14 10:40:12;;;;;;;4.07;0.80;;;;;;;14.99;48.39;101803.53;6722026;26;20436;-80
2024/04/14 10:43:16;;;;;;;5.60;0.50;;;;;;;14.97;48.76;101797.47;6686977;26;20066;-79
2024/04/14 10:46:17;;;;;;;2.33;0.90;;;;;;;14.93;47.36;101795.91;6688376;26;19996;-81
2024/04/14 10:49:23;;;;;;;3.30;0.60;;;;;;;15.07;48.09;101803.09;6688898;26;20004;-80
2024/04/14 10:52:24;;;;;;;4.40;0.65;;;;;;;15.13;49.83;101792.19;6710730;26;20375;-80
2024/04/14 10:55:27;;;;;;;2.60;0.50;;;;;;;15.02;47.82;101800.69;6732778;26;19999;-80
2024/04/14 10:58:30;;;;;;;3.70;0.77;;;;;;;15.23;45.22;101793.38;6732563;26;19992;-79
2024/04/14 11:01:31;;;;;;;5.55;0.65;;;;;;;15.16;41.78;101782.25;6732081;26;19995;-80
2024/04/14 11:04:37;;;;;;;4.90;1.20;;;;;;;15.17;42.44;101797.22;6732770;26;20433;-81
2024/04/14 11:07:38;;;;;;;9.02;0.80;;;;;;;15.24;42.81;101805.66;6732299;26;19991;-80
2024/04/14 11:10:41;;;;;;;4.72;1.00;;;;;;;15.20;43.69;101791.75;6731683;26;20267;-80
2024/04/14 11:13:42;;;;;;;4.13;0.47;;;;;;;15.20;42.84;101801.47;6732285;26;19991;-81
2024/04/14 11:16:45;;;;;;;2.72;0.40;;;;;;;15.19;42.18;101797.13;6731935;26;20300;-80
2024/04/14 11:19:51;;;;;;;2.28;0.73;;;;;;;15.22;41.73;101784.56;6732126;26;20368;-80
2024/04/14 11:22:54;;;;;;;6.72;0.80;;;;;;;15.26;42.12;101793.22;6731592;26;19991;-80
2024/04/14 11:25:55;;;;;;;1.80;0.47;;;;;;;15.54;44.90;101789.84;6731950;26;20060;-79
2024/04/14 11:28:58;;;;;;;4.00;0.68;;;;;;;15.56;41.28;101805.63;6731784;26;20248;-81
2024/04/14 11:32:27;;;;;;;2.67;0.45;;;;;;;15.47;40.68;101791.97;6731776;26;20039;-80
2024/04/14 11:35:27;;;;;;;1.30;0.40;;;;;;;15.55;40.89;101796.00;6731688;26;20370;-80
2024/04/14 11:38:31;;;;;;;4.63;0.47;;;;;;;15.41;41.38;101794.13;6731532;26;20056;-79
2024/04/14 11:41:32;;;;;;;2.35;0.50;;;;;;;15.78;40.57;101792.03;6731496;26;20364;-79
2024/04/14 11:44:35;;;;;;;2.47;0.60;;;;;;;16.26;39.81;101798.88;6731880;26;20045;-80
2024/04/14 11:47:35;;;;;;;0.70;0.38;;;;;;;16.29;38.41;101788.06;6731344;26;19996;-81
2024/04/14 11:50:41;;;;;;;2.53;1.05;;;;;;;16.22;39.03;101784.94;6731397;26;20354;-81
2024/04/14 11:53:41;;;;;;;3.28;0.70;;;;;;;16.36;39.75;101793.88;6729853;26;20045;-80
2024/04/14 11:56:44;;;;;;;3.47;0.55;;;;;;;16.65;38.71;101795.56;6731251;26;20023;-81
2024/04/14 11:59:45;;;;;;;1.02;0.35;;;;;;;16.83;37.78;101798.06;6731491;26;20056;-80
2024/04/14 12:02:48;;;;;;;2.53;0.70;;;;;;;16.92;38.46;101793.03;6731009;26;19999;-81
2024/04/14 12:05:53;;;;;;;1.27;0.38;;;;;;;16.96;37.88;101794.53;6731126;26;19991;-77
2024/04/14 12:08:54;;;;;;;0.30;0.30;;;;;;;16.77;37.91;101794.00;6731126;26;20000;-78
2024/04/14 12:11:57;;;;;;;5.50;0.73;;;;;;;17.33;37.25;101794.84;6730383;26;20041;-79
2024/04/14 12:15:00;;;;;;;1.17;0.50;;;;;;;17.34;35.59;101772.63;6731709;26;20044;-80
2024/04/14 12:18:03;;;;;;;1.15;0.75;;;;;;;17.41;36.99;101781.91;6731029;26;20027;-79
2024/04/14 12:21:06;;;;;;;2.97;0.55;;;;;;;17.64;37.53;101780.38;6730667;26;20257;-80
2024/04/14 12:24:10;;;;;;;6.75;0.50;;;;;;;17.57;36.08;101786.19;6731027;26;20000;-80
2024/04/14 12:27:11;;;;;;;0.80;0.50;;;;;;;17.40;35.39;101784.69;6730663;26;20006;-82
2024/04/14 12:30:14;;;;;;;1.17;0.63;;;;;;;17.32;35.71;101785.16;6730587;26;20000;-81
2024/04/14 12:33:14;;;;;;;6.97;0.50;;;;;;;16.92;37.05;101789.53;6730335;26;19996;-81
2024/04/14 12:36:20;;;;;;;1.02;0.45;;;;;;;16.61;37.48;101772.81;6730848;26;20010;-80
2024/04/14 12:39:23;;;;;;;2.25;0.47;;;;;;;16.59;37.26;101773.88;6730734;26;20060;-81
2024/04/14 12:42:27;;;;;;;2.30;0.47;;;;;;;16.79;38.06;101754.94;6730316;26;19987;-81
2024/04/14 12:45:28;;;;;;;3.75;0.63;;;;;;;17.29;38.12;101777.38;6730581;26;19991;-81
2024/04/14 12:48:31;;;;;;;2.35;0.60;;;;;;;17.67;38.66;101768.72;6730146;26;20007;-80
2024/04/14 12:51:34;;;;;;;0.35;0.30;;;;;;;18.00;35.37;101761.13;6730050;26;20052;-77
2024/04/14 12:54:37;;;;;;;2.80;0.60;;;;;;;18.12;34.61;101751.47;6730236;26;20010;-79
2024/04/14 12:57:37;;;;;;;1.17;0.45;;;;;;;18.24;35.20;101749.75;6730130;26;20431;-80
2024/04/14 13:00:41;;;;;;;1.02;0.50;;;;;;;18.06;34.55;101751.03;6730658;26;19999;-78
2024/04/14 13:03:41;;;;;;;1.30;0.60;;;;;;;18.45;33.18;101742.09;6729973;26;19996;-78
2024/04/14 13:06:47;;;;;;;1.65;0.80;;;;;;;18.66;33.93;101745.00;6729860;26;20043;-78
2024/04/14 13:09:47;;;;;;;2.72;0.93;;;;;;;18.50;33.42;101732.81;6730140;26;20007;-78
2024/04/14 13:12:50;;;;;;;5.57;0.68;;;;;;;18.58;33.53;101723.44;6729569;26;19999;-78
2024/04/14 13:15:51;;;;;;;3.72;0.63;;;;;;;17.84;33.71;101725.88;6730171;26;20009;-79
2024/04/14 13:18:54;;;;;;;2.80;0.50;;;;;;;17.61;34.83;101721.25;6729968;26;20023;-78
2024/04/14 13:21:57;;;;;;;3.83;0.65;;;;;;;17.30;36.56;101725.09;6729993;26;19999;-78
2024/04/14 13:25:00;;;;;;;1.02;0.40;;;;;;;17.21;35.96;101724.78;6730262;26;20056;-79
2024/04/14 13:28:00;;;;;;;3.28;0.70;;;;;;;17.59;37.33;101718.69;6730069;26;19992;-78
2024/04/14 13:31:03;;;;;;;0.43;0.28;;;;;;;18.21;35.33;101712.69;6729517;26;20446;-78
2024/04/14 13:34:06;;;;;;;4.50;0.47;;;;;;;18.85;33.32;101713.47;6729894;26;19995;-77
2024/04/14 13:37:09;;;;;;;2.17;0.45;;;;;;;19.17;34.46;101712.94;6729560;26;20052;-79
2024/04/14 13:40:12;;;;;;;3.90;0.55;;;;;;;18.83;31.96;101702.06;6729675;26;19999;-78
2024/04/14 13:43:15;;;;;;;1.02;0.43;;;;;;;18.07;33.99;101699.50;6729456;26;20069;-79
2024/04/14 13:46:19;;;;;;;3.13;0.70;;;;;;;17.44;34.71;101695.78;6729860;26;19996;-78
2024/04/14 13:49:22;;;;;;;4.65;0.57;;;;;;;17.01;36.82;101693.34;6729560;26;19995;-78
2024/04/14 13:52:29;;;;;;;3.78;0.40;;;;;;;17.01;37.69;101698.66;6728903;26;19992;-79
2024/04/14 13:55:32;;;;;;;4.65;0.60;;;;;;;17.13;36.81;101692.53;6729219;26;19995;-80
2024/04/14 13:58:35;;;;;;;3.78;0.43;;;;;;;17.73;36.96;101693.84;6729032;26;20363;-79
2024/04/14 14:01:36;;;;;;;1.42;0.50;;;;;;;17.78;36.24;101682.91;6728908;26;19995;-79
2024/04/14 14:04:39;;;;;;;3.55;0.52;;;;;;;18.61;35.25;101676.13;6729266;26;20010;-78
2024/04/14 14:07:44;;;;;;;3.45;0.57;;;;;;;18.20;33.96;101677.25;6728857;26;19995;-78
2024/04/14 14:10:45;;;;;;;1.60;0.45;;;;;;;18.38;34.33;101671.59;6728650;26;20034;-78